createdAt,value
2023-03-08T00:01:42.250Z,5.53
2023-03-08T00:06:43.688Z,5.46
2023-03-08T00:11:45.068Z,5.34
2023-03-08T00:16:46.425Z,5.43
2023-03-08T00:21:47.842Z,5.50
2023-03-08T00:26:49.203Z,5.53
2023-03-08T00:31:50.724Z,5.49
2023-03-08T00:36:52.277Z,5.56
2023-03-08T00:41:53.693Z,5.53
2023-03-08T00:46:55.134Z,5.55
2023-03-08T00:51:56.548Z,5.50
2023-03-08T00:56:57.951Z,5.56
2023-03-08T01:02:00.711Z,5.50
2023-03-08T01:07:02.128Z,5.54
2023-03-08T01:12:03.775Z,5.56
2023-03-08T01:17:05.241Z,5.52
2023-03-08T01:22:06.605Z,5.53
2023-03-08T01:27:07.992Z,5.55
2023-03-08T01:32:10.327Z,5.66
2023-03-08T01:37:11.751Z,5.75
2023-03-08T01:42:13.144Z,5.85
2023-03-08T01:47:20.181Z,5.80
2023-03-08T01:52:36.740Z,5.85
2023-03-08T01:57:49.302Z,5.92
2023-03-08T02:02:52.995Z,5.96
2023-03-08T02:07:54.448Z,6.04
2023-03-08T02:12:55.828Z,6.08
2023-03-08T02:17:57.189Z,6.13
2023-03-08T02:23:18.954Z,5.98
2023-03-08T02:28:25.195Z,5.97
2023-03-08T02:33:26.659Z,6.00
2023-03-08T02:38:28.050Z,5.85
2023-03-08T02:43:29.454Z,5.91
2023-03-08T02:48:30.896Z,5.91
2023-03-08T02:53:32.218Z,5.87
2023-03-08T02:58:33.550Z,5.88
2023-03-08T03:03:34.892Z,5.81
2023-03-08T03:08:36.306Z,5.92
2023-03-08T03:13:37.982Z,5.96
2023-03-08T03:18:39.451Z,5.99
2023-03-08T03:23:41.353Z,6.05
2023-03-08T03:28:43.206Z,6.08
2023-03-08T03:33:44.915Z,6.11
2023-03-08T03:38:47.249Z,6.13
2023-03-08T03:43:49.480Z,6.15
2023-03-08T03:48:51.189Z,6.17
2023-03-08T03:53:52.591Z,6.13
2023-03-08T03:58:54.397Z,6.11
2023-03-08T04:03:57.000Z,6.06
2023-03-08T04:09:00.829Z,6.03
2023-03-08T04:14:03.036Z,6.03
2023-03-08T04:19:11.331Z,6.00
2023-03-08T04:24:12.674Z,5.97
2023-03-08T04:29:14.048Z,5.90
2023-03-08T04:34:15.365Z,5.91
2023-03-08T04:39:16.752Z,5.88
2023-03-08T04:44:18.069Z,5.74
2023-03-08T04:49:19.442Z,5.55
2023-03-08T04:54:20.791Z,5.44
2023-03-08T04:59:22.176Z,5.39
2023-03-08T05:04:23.617Z,5.43
2023-03-08T05:09:24.940Z,5.24
2023-03-08T05:14:26.369Z,5.16
2023-03-08T05:19:27.727Z,5.18
2023-03-08T05:24:29.089Z,5.17
2023-03-08T05:29:30.427Z,5.22
2023-03-08T05:34:31.792Z,5.29
2023-03-08T05:39:33.118Z,5.31
2023-03-08T05:44:35.935Z,5.23
2023-03-08T05:49:37.283Z,5.24
2023-03-08T05:54:39.529Z,5.30
2023-03-08T05:59:40.867Z,5.26
2023-03-08T06:04:42.223Z,5.31
2023-03-08T06:09:43.590Z,5.38
2023-03-08T06:14:44.931Z,5.30
2023-03-08T06:19:46.714Z,5.04
2023-03-08T06:24:50.774Z,5.05
2023-03-08T06:29:52.138Z,4.88
2023-03-08T06:34:53.461Z,4.85
2023-03-08T06:39:54.801Z,4.81
2023-03-08T06:44:56.160Z,4.76
2023-03-08T06:49:57.531Z,4.74
2023-03-08T06:54:58.845Z,4.78
2023-03-08T07:00:00.232Z,4.90
2023-03-08T07:05:01.683Z,4.86
2023-03-08T07:10:03.992Z,4.83
2023-03-08T07:15:14.735Z,4.84
2023-03-08T07:20:18.374Z,4.73
2023-03-08T07:25:21.189Z,4.69
2023-03-08T07:30:23.129Z,4.66
2023-03-08T07:35:24.544Z,4.73
2023-03-08T07:40:25.897Z,4.81
2023-03-08T07:45:27.264Z,4.84
2023-03-08T07:50:28.642Z,4.79
2023-03-08T07:55:30.157Z,4.72
2023-03-08T08:00:31.508Z,4.77
2023-03-08T08:05:35.491Z,4.73
2023-03-08T08:10:36.905Z,4.81
2023-03-08T08:15:38.311Z,4.83
2023-03-08T08:20:39.675Z,4.83
2023-03-08T08:25:41.023Z,4.78
2023-03-08T08:30:42.391Z,4.82
2023-03-08T08:35:43.808Z,4.64
2023-03-08T08:40:45.300Z,4.63
2023-03-08T08:45:49.104Z,4.70
2023-03-08T08:50:51.631Z,4.49
2023-03-08T08:55:53.037Z,4.41
2023-03-08T09:00:54.363Z,4.30
2023-03-08T09:05:57.987Z,4.19
2023-03-08T09:11:04.585Z,4.21
2023-03-08T09:16:06.403Z,4.21
2023-03-08T09:21:07.784Z,4.09
2023-03-08T09:26:09.257Z,4.17
2023-03-08T09:31:14.934Z,4.12
2023-03-08T09:36:16.662Z,4.24
2023-03-08T09:41:30.771Z,4.29
2023-03-08T09:46:46.205Z,4.28
2023-03-08T09:51:52.842Z,4.13
2023-03-08T09:56:56.198Z,4.14
2023-03-08T10:02:14.794Z,4.07
2023-03-08T10:07:45.452Z,3.96
2023-03-08T10:13:03.784Z,4.01
2023-03-08T10:18:24.772Z,4.07
2023-03-08T10:23:29.400Z,4.17
2023-03-08T10:28:30.742Z,4.24
2023-03-08T10:33:35.239Z,4.25
2023-03-08T10:38:37.284Z,4.30
2023-03-08T10:43:46.627Z,4.40
2023-03-08T10:48:48.351Z,4.51
2023-03-08T10:54:02.579Z,4.55
2023-03-08T10:59:06.229Z,4.58
2023-03-08T11:04:21.151Z,4.62
2023-03-08T11:09:31.264Z,4.60
2023-03-08T11:14:32.723Z,4.63
2023-03-08T11:19:49.130Z,4.60
2023-03-08T11:25:19.364Z,4.32
2023-03-08T11:31:05.236Z,4.12
2023-03-08T11:36:32.933Z,4.04
2023-03-08T11:41:51.536Z,3.98
2023-03-08T11:47:26.258Z,4.01
2023-03-08T11:52:44.718Z,4.03
2023-03-08T11:57:54.820Z,4.09
2023-03-08T12:03:03.204Z,4.22
2023-03-08T12:08:13.561Z,4.33
2023-03-08T12:13:22.690Z,4.16
2023-03-08T12:18:39.039Z,4.03
2023-03-08T12:24:05.330Z,3.99
2023-03-08T12:29:18.514Z,4.09
2023-03-08T12:34:38.184Z,4.25
2023-03-08T12:39:40.454Z,4.40
2023-03-08T12:44:42.825Z,4.45
2023-03-08T12:49:49.390Z,4.26
2023-03-08T12:55:19.250Z,4.25
2023-03-08T13:00:20.907Z,4.28
2023-03-08T13:05:33.209Z,4.47
2023-03-08T13:10:38.968Z,4.46
2023-03-08T13:15:40.428Z,4.61
2023-03-08T13:20:59.370Z,4.72
2023-03-08T13:26:06.545Z,4.84
2023-03-08T13:31:10.882Z,4.76
2023-03-08T13:36:32.712Z,4.87
2023-03-08T13:41:43.614Z,4.93
2023-03-08T13:46:46.354Z,4.87
2023-03-08T13:51:51.707Z,4.74
2023-03-08T13:56:54.289Z,4.75
2023-03-08T14:01:56.171Z,4.64
2023-03-08T14:06:59.951Z,4.61
2023-03-08T14:12:05.064Z,4.67
2023-03-08T14:17:06.704Z,4.64
2023-03-08T14:22:28.622Z,4.61
2023-03-08T14:27:40.926Z,4.68
2023-03-08T14:32:56.814Z,4.79
2023-03-08T14:37:58.862Z,4.69
2023-03-08T14:43:04.545Z,4.86
2023-03-08T14:48:18.227Z,4.99
2023-03-08T14:53:29.082Z,5.21
2023-03-08T14:58:32.672Z,5.16
2023-03-08T15:03:34.355Z,5.22
2023-03-08T15:08:36.190Z,5.16
2023-03-08T15:13:37.516Z,5.21
2023-03-08T15:18:38.951Z,5.22
2023-03-08T15:23:42.788Z,5.08
2023-03-08T15:28:44.147Z,4.92
2023-03-08T15:33:45.591Z,5.22
2023-03-08T15:38:47.003Z,5.12
2023-03-08T15:43:48.537Z,5.16
2023-03-08T15:48:51.104Z,5.22
2023-03-08T15:53:52.788Z,5.28
2023-03-08T15:58:55.220Z,5.30
2023-03-08T16:03:57.387Z,5.38
2023-03-08T16:08:59.068Z,5.59
2023-03-08T16:14:00.447Z,5.80
2023-03-08T16:19:02.568Z,5.92
2023-03-08T16:24:04.286Z,5.97
2023-03-08T16:29:05.695Z,6.01
2023-03-08T16:34:07.438Z,6.14
2023-03-08T16:39:09.226Z,6.21
2023-03-08T16:44:21.228Z,6.28
2023-03-08T16:49:28.031Z,6.30
2023-03-08T16:54:29.402Z,6.37
2023-03-08T16:59:31.189Z,6.32
2023-03-08T17:04:32.556Z,6.33
2023-03-08T17:09:35.473Z,6.03
2023-03-08T17:14:37.421Z,5.87
2023-03-08T17:19:40.860Z,6.12
2023-03-08T17:24:42.509Z,6.27
2023-03-08T17:29:43.876Z,6.30
2023-03-08T17:34:45.515Z,6.40
2023-03-08T17:39:46.878Z,6.46
2023-03-08T17:44:48.303Z,6.52
2023-03-08T17:49:49.684Z,6.41
2023-03-08T17:54:51.081Z,6.50
2023-03-08T17:59:53.590Z,6.59
2023-03-08T18:04:55.911Z,6.62
2023-03-08T18:09:57.373Z,6.57
2023-03-08T18:15:01.111Z,6.54
2023-03-08T18:20:05.269Z,6.37
2023-03-08T18:25:06.994Z,6.50
2023-03-08T18:30:09.575Z,6.64
2023-03-08T18:35:13.215Z,6.62
2023-03-08T18:40:15.030Z,6.70
2023-03-08T18:45:18.151Z,6.70
2023-03-08T18:50:19.852Z,6.74
2023-03-08T18:55:21.195Z,6.71
2023-03-08T19:00:22.737Z,6.62
2023-03-08T19:05:24.088Z,6.53
2023-03-08T19:10:25.460Z,6.54
2023-03-08T19:15:27.214Z,6.71
2023-03-08T19:20:29.366Z,6.69
2023-03-08T19:25:35.536Z,6.72
2023-03-08T19:30:37.031Z,6.89
2023-03-08T19:35:38.691Z,6.99
2023-03-08T19:40:43.551Z,7.05
2023-03-08T19:45:48.860Z,6.95
2023-03-08T19:50:50.343Z,7.06
2023-03-08T19:55:53.767Z,7.00
2023-03-08T20:01:02.912Z,6.95
2023-03-08T20:06:05.063Z,7.04
2023-03-08T20:11:06.545Z,7.04
2023-03-08T20:16:08.022Z,7.14
2023-03-08T20:21:09.549Z,7.24
2023-03-08T20:26:11.414Z,7.38
2023-03-08T20:31:13.423Z,7.40
2023-03-08T20:36:15.592Z,7.51
2023-03-08T20:41:19.821Z,7.55
2023-03-08T20:46:23.888Z,7.62
2023-03-08T20:51:25.795Z,7.63
2023-03-08T20:56:27.281Z,7.67
2023-03-08T21:01:31.549Z,7.69
2023-03-08T21:06:33.114Z,7.66
2023-03-08T21:11:34.585Z,7.72
2023-03-08T21:16:36.256Z,7.81
2023-03-08T21:21:40.639Z,7.79
2023-03-08T21:26:42.603Z,7.81
2023-03-08T21:31:48.447Z,7.83
2023-03-08T21:36:49.928Z,7.86
2023-03-08T21:41:52.918Z,7.91
2023-03-08T21:46:55.376Z,7.78
2023-03-08T21:51:58.198Z,7.86
2023-03-08T21:56:59.833Z,7.88
2023-03-08T22:02:01.374Z,8.01
2023-03-08T22:07:02.983Z,8.06
2023-03-08T22:12:04.569Z,8.10
2023-03-08T22:17:07.128Z,8.20
2023-03-08T22:22:10.331Z,8.30
2023-03-08T22:27:13.032Z,8.37
2023-03-08T22:32:15.541Z,8.39
2023-03-08T22:37:16.949Z,8.40
2023-03-08T22:42:18.478Z,8.34
2023-03-08T22:47:20.046Z,8.38
2023-03-08T22:52:21.451Z,8.41
2023-03-08T22:57:22.859Z,8.48
2023-03-08T23:02:24.728Z,8.54
2023-03-08T23:07:26.079Z,8.56
2023-03-08T23:12:27.415Z,8.60
2023-03-08T23:17:28.800Z,8.59
2023-03-08T23:22:30.168Z,8.56
2023-03-08T23:27:31.519Z,8.61
2023-03-08T23:32:33.101Z,8.63
2023-03-08T23:37:34.807Z,8.70
2023-03-08T23:42:36.735Z,8.74
2023-03-08T23:47:38.130Z,8.79
2023-03-08T23:52:39.449Z,8.83
2023-03-08T23:57:40.821Z,8.88
